Main page
METAR-TAF:

METAR-TAF

Airports :

Chester County G. O. Carlson Airport

Coatesville, Pennsylvania, United States

latitude: 39-58-44N, longitude: 075-51-56W, elevation: 659 ft

Current weather observation

The report was made 29 minutes ago, at 13:35 UTC
Calm wind
Temperature 34°F
Humidity 64%
Pressure 30.34 in. Hg
Visibility: 10 miles
Few clouds at a height of 4600 ft

METAR: KMQS 241335Z AUTO 00000KT 10SM FEW046 01/M05 A3034 RMK AO2

Time: 09:04 (14:04 UTC)


TAF: missing

Weather observations and forecasts of more than 4000 airports (METAR and TAF reports).

The available stations are represented by yellow and red dots on the map.

Hover mouse over dot to see the name of the station.

Then click to see weather observations and forecasts.

To change the map : click on the green buttons with a black cross to zoom in, on the green button with a dash to zoom out, or on the green arrows for adjacent maps.


METAR-TAF: